createdAt,value
2018-07-13T00:01:34.787Z,16.75
2018-07-13T00:04:01.712Z,16.68
2018-07-13T00:06:29.201Z,16.66
2018-07-13T00:08:56.111Z,16.44
2018-07-13T00:11:23.001Z,16.31
2018-07-13T00:14:05.999Z,16.66
2018-07-13T00:16:32.908Z,15.94
2018-07-13T00:18:59.804Z,15.71
2018-07-13T00:21:26.698Z,15.73
2018-07-13T00:23:53.652Z,15.93
2018-07-13T00:26:22.583Z,16.08
2018-07-13T00:28:49.567Z,16.04
2018-07-13T00:31:16.501Z,16.08
2018-07-13T00:33:43.420Z,16.60
2018-07-13T00:36:10.414Z,16.10
2018-07-13T00:38:37.311Z,16.52
2018-07-13T00:41:04.203Z,16.59
2018-07-13T00:43:32.181Z,16.27
2018-07-13T00:45:59.103Z,16.17
2018-07-13T00:48:25.999Z,16.02
2018-07-13T00:50:52.896Z,15.82
2018-07-13T00:53:19.796Z,15.86
2018-07-13T00:55:46.688Z,15.86
2018-07-13T00:58:13.611Z,16.51
2018-07-13T01:00:40.558Z,16.73
2018-07-13T01:03:07.494Z,16.30
2018-07-13T01:05:34.407Z,16.14
2018-07-13T01:08:01.293Z,16.12
2018-07-13T01:10:28.213Z,16.19
2018-07-13T01:12:55.159Z,16.19
2018-07-13T01:15:22.320Z,16.18
2018-07-13T01:17:49.320Z,16.18
2018-07-13T01:20:16.175Z,16.12
2018-07-13T01:22:43.078Z,16.22
2018-07-13T01:25:11.752Z,16.12
2018-07-13T01:27:38.642Z,16.04
2018-07-13T01:30:06.551Z,16.03
2018-07-13T01:32:33.447Z,15.77
2018-07-13T01:35:00.337Z,15.53
2018-07-13T01:37:27.332Z,15.32
2018-07-13T01:39:54.271Z,15.77
2018-07-13T01:42:21.174Z,15.12
2018-07-13T01:44:48.080Z,14.89
2018-07-13T01:47:14.996Z,14.75
2018-07-13T01:49:41.933Z,14.56
2018-07-13T01:52:08.859Z,14.57
2018-07-13T01:54:35.765Z,14.54
2018-07-13T01:57:02.879Z,14.65
2018-07-13T01:59:29.809Z,14.46
2018-07-13T02:01:56.754Z,14.98
2018-07-13T02:04:23.647Z,14.52
2018-07-13T02:06:50.523Z,14.54
2018-07-13T02:09:17.423Z,14.36
2018-07-13T02:11:47.443Z,14.36
2018-07-13T02:14:14.344Z,14.25
2018-07-13T02:16:41.258Z,14.25
2018-07-13T02:19:08.135Z,14.33
2018-07-13T02:21:35.059Z,14.43
2018-07-13T02:24:01.931Z,14.41
2018-07-13T02:26:29.120Z,14.23
2018-07-13T02:28:56.018Z,14.08
2018-07-13T02:31:22.920Z,14.06
2018-07-13T02:33:49.849Z,14.69
2018-07-13T02:36:16.705Z,14.13
2018-07-13T02:38:43.615Z,13.88
2018-07-13T02:41:10.497Z,14.05
2018-07-13T02:43:37.391Z,14.13
2018-07-13T02:46:04.324Z,13.85
2018-07-13T02:48:31.203Z,14.07
2018-07-13T02:50:58.115Z,14.29
2018-07-13T02:53:25.003Z,14.39
2018-07-13T02:55:51.912Z,14.49
2018-07-13T02:58:18.792Z,14.55
2018-07-13T03:00:45.713Z,15.01
2018-07-13T03:03:12.623Z,14.49
2018-07-13T03:05:39.517Z,14.37
2018-07-13T03:08:07.445Z,14.97
2018-07-13T03:10:34.341Z,15.09
2018-07-13T03:13:01.209Z,14.55
2018-07-13T03:15:28.096Z,14.46
2018-07-13T03:17:54.991Z,15.02
2018-07-13T03:20:25.165Z,15.23
2018-07-13T03:22:52.063Z,15.33
2018-07-13T03:25:19.012Z,14.80
2018-07-13T03:27:45.907Z,14.47
2018-07-13T03:30:12.790Z,14.40
2018-07-13T03:32:39.748Z,14.27
2018-07-13T03:35:06.707Z,14.11
2018-07-13T03:37:33.640Z,14.09
2018-07-13T03:40:00.942Z,14.01
2018-07-13T03:42:27.841Z,13.84
2018-07-13T03:44:54.722Z,13.99
2018-07-13T03:47:21.612Z,14.09
2018-07-13T03:49:48.540Z,13.98
2018-07-13T03:52:15.441Z,13.90
2018-07-13T03:54:42.332Z,13.60
2018-07-13T03:57:09.216Z,13.66
2018-07-13T03:59:36.250Z,13.59
2018-07-13T04:02:03.184Z,14.36
2018-07-13T04:04:30.081Z,14.31
2018-07-13T04:06:56.981Z,14.50
2018-07-13T04:09:23.903Z,15.02
2018-07-13T04:11:51.062Z,15.35
2018-07-13T04:14:17.972Z,15.78
2018-07-13T04:16:44.873Z,16.26
2018-07-13T04:19:11.756Z,16.68
2018-07-13T04:21:38.667Z,16.94
2018-07-13T04:24:14.175Z,17.48
2018-07-13T04:26:43.950Z,18.10
2018-07-13T04:29:10.831Z,18.62
2018-07-13T04:31:37.754Z,19.00
2018-07-13T04:34:04.696Z,19.80
2018-07-13T04:36:31.540Z,19.95
2018-07-13T04:38:58.450Z,20.14
2018-07-13T04:41:25.358Z,20.79
2018-07-13T04:43:52.255Z,20.51
2018-07-13T04:46:19.196Z,20.31
2018-07-13T04:48:46.081Z,20.93
2018-07-13T04:51:12.971Z,21.03
2018-07-13T04:53:39.874Z,21.42
2018-07-13T04:56:06.776Z,21.79
2018-07-13T04:58:33.694Z,21.74
2018-07-13T05:01:00.619Z,22.21
2018-07-13T05:03:29.537Z,22.15
2018-07-13T05:05:56.472Z,22.87
2018-07-13T05:08:25.550Z,21.87
2018-07-13T05:10:52.535Z,21.51
2018-07-13T05:13:19.442Z,20.95
2018-07-13T05:15:46.380Z,20.80
2018-07-13T05:18:15.011Z,20.73
2018-07-13T05:20:43.068Z,20.96
2018-07-13T05:23:11.019Z,20.50
2018-07-13T05:25:37.935Z,21.21
2018-07-13T05:28:05.092Z,21.09
2018-07-13T05:30:33.215Z,20.83
2018-07-13T05:33:00.248Z,21.53
2018-07-13T05:35:28.943Z,21.97
2018-07-13T05:38:04.071Z,22.06
2018-07-13T05:40:37.523Z,21.93
2018-07-13T05:43:04.502Z,21.70
2018-07-13T05:45:31.512Z,21.94
2018-07-13T05:47:59.380Z,22.43
2018-07-13T05:50:29.431Z,21.50
2018-07-13T05:52:56.486Z,21.69
2018-07-13T05:55:23.520Z,22.03
2018-07-13T05:57:54.822Z,21.70
2018-07-13T06:00:22.563Z,22.00
2018-07-13T06:02:49.840Z,22.16
2018-07-13T06:05:16.786Z,22.10
2018-07-13T06:07:43.690Z,22.10
2018-07-13T06:10:10.587Z,21.64
2018-07-13T06:12:37.495Z,21.52
2018-07-13T06:15:04.450Z,21.20
2018-07-13T06:17:31.326Z,21.37
2018-07-13T06:19:58.225Z,21.26
2018-07-13T06:22:25.188Z,21.29
2018-07-13T06:24:52.164Z,21.45
2018-07-13T06:27:19.064Z,21.32
2018-07-13T06:29:45.980Z,21.65
2018-07-13T06:32:12.873Z,21.78
2018-07-13T06:34:39.759Z,22.02
2018-07-13T06:37:06.660Z,21.99
2018-07-13T06:39:33.557Z,21.92
2018-07-13T06:42:00.840Z,22.08
2018-07-13T06:44:27.758Z,22.51
2018-07-13T06:46:54.628Z,22.49
2018-07-13T06:49:21.530Z,22.58
2018-07-13T06:51:48.449Z,22.52
2018-07-13T06:54:15.523Z,22.71
2018-07-13T06:56:43.462Z,22.51
2018-07-13T06:59:16.221Z,22.66
2018-07-13T07:01:43.787Z,22.82
2018-07-13T07:04:35.124Z,22.81
2018-07-13T07:07:06.725Z,23.06
2018-07-13T07:09:33.688Z,23.00
2018-07-13T07:12:26.839Z,23.18
2018-07-13T07:14:53.740Z,23.45
2018-07-13T07:17:20.655Z,23.74
2018-07-13T07:19:47.552Z,23.54
2018-07-13T07:22:14.536Z,23.38
2018-07-13T07:24:41.455Z,23.46
2018-07-13T07:27:08.379Z,23.49
2018-07-13T07:29:35.285Z,23.46
2018-07-13T07:32:02.185Z,23.85
2018-07-13T07:34:29.091Z,23.87
2018-07-13T07:36:56.286Z,24.37
2018-07-13T07:39:23.523Z,24.56
2018-07-13T07:41:51.305Z,24.37
2018-07-13T07:44:18.208Z,24.71
2018-07-13T07:46:45.412Z,24.72
2018-07-13T07:49:12.610Z,23.90
2018-07-13T07:51:39.509Z,24.86
2018-07-13T07:54:06.425Z,25.05
2018-07-13T07:56:33.352Z,25.12
2018-07-13T07:59:00.243Z,24.75
2018-07-13T08:01:27.160Z,24.87
2018-07-13T08:03:54.070Z,25.14
2018-07-13T08:06:21.135Z,25.33
2018-07-13T08:08:47.913Z,25.01
2018-07-13T08:11:15.236Z,25.03
2018-07-13T08:13:42.255Z,25.18
2018-07-13T08:16:09.116Z,25.62
2018-07-13T08:18:36.022Z,25.70
2018-07-13T08:21:02.919Z,25.87
2018-07-13T08:23:29.829Z,25.44
2018-07-13T08:25:56.746Z,25.14
2018-07-13T08:28:23.768Z,25.21
2018-07-13T08:30:54.951Z,25.32
2018-07-13T08:33:21.867Z,25.39
2018-07-13T08:35:48.779Z,25.73
2018-07-13T08:38:15.687Z,25.69
2018-07-13T08:40:42.597Z,25.84
2018-07-13T08:43:09.488Z,25.72
2018-07-13T08:45:36.399Z,25.97
2018-07-13T08:48:05.491Z,26.36
2018-07-13T08:50:32.416Z,26.62
2018-07-13T08:52:59.342Z,27.24
2018-07-13T08:55:26.259Z,26.50
2018-07-13T08:57:53.218Z,26.67
2018-07-13T09:00:20.220Z,26.71
2018-07-13T09:02:47.167Z,26.96
2018-07-13T09:05:14.079Z,27.44
2018-07-13T09:07:41.000Z,27.48
2018-07-13T09:10:09.396Z,27.39
2018-07-13T09:12:36.439Z,27.69
2018-07-13T09:15:03.360Z,27.79
2018-07-13T09:17:30.258Z,27.02
2018-07-13T09:19:57.196Z,26.87
2018-07-13T09:22:24.151Z,26.91
2018-07-13T09:24:51.076Z,27.03
2018-07-13T09:27:17.999Z,27.03
2018-07-13T09:29:45.003Z,27.43
2018-07-13T09:32:11.967Z,27.13
2018-07-13T09:34:38.928Z,27.50
2018-07-13T09:37:05.977Z,27.44
2018-07-13T09:39:32.891Z,27.38
2018-07-13T09:41:59.794Z,28.44
2018-07-13T09:44:26.703Z,27.80
2018-07-13T09:46:53.705Z,27.71
2018-07-13T09:49:20.503Z,28.02
2018-07-13T09:51:47.452Z,28.55
2018-07-13T09:54:14.432Z,27.71
2018-07-13T09:56:41.248Z,28.33
2018-07-13T09:59:08.176Z,28.35
2018-07-13T10:01:35.109Z,28.21
2018-07-13T10:04:02.016Z,28.29
2018-07-13T10:06:28.937Z,28.66
2018-07-13T10:08:55.900Z,28.54
2018-07-13T10:11:23.784Z,28.49
2018-07-13T10:13:50.746Z,28.31
2018-07-13T10:16:17.651Z,28.35
2018-07-13T10:18:44.537Z,28.12
2018-07-13T10:21:11.440Z,27.91
2018-07-13T10:23:38.644Z,28.27
2018-07-13T10:26:07.571Z,29.20
2018-07-13T10:28:37.096Z,29.75
2018-07-13T10:31:03.996Z,28.67
2018-07-13T10:33:32.075Z,29.09
2018-07-13T10:36:00.442Z,28.82
2018-07-13T10:38:27.369Z,28.82
2018-07-13T10:40:55.076Z,29.89
2018-07-13T10:43:22.014Z,30.46
2018-07-13T10:45:48.903Z,31.22
2018-07-13T10:48:15.785Z,30.75
2018-07-13T10:50:42.693Z,30.29
2018-07-13T10:53:09.605Z,30.11
2018-07-13T10:55:36.520Z,29.37
2018-07-13T10:58:03.457Z,28.72
2018-07-13T11:00:30.394Z,27.84
2018-07-13T11:02:57.360Z,27.91
2018-07-13T11:05:24.238Z,28.76
2018-07-13T11:07:51.170Z,29.23
2018-07-13T11:10:18.060Z,29.02
2018-07-13T11:12:44.976Z,29.40
2018-07-13T11:15:11.892Z,29.91
2018-07-13T11:17:38.791Z,30.22
2018-07-13T11:20:06.591Z,30.30
2018-07-13T11:22:33.512Z,30.78
2018-07-13T11:25:00.406Z,31.07
2018-07-13T11:27:27.306Z,30.42
2018-07-13T11:29:54.211Z,29.77
2018-07-13T11:32:21.131Z,29.18
2018-07-13T11:34:48.068Z,28.95
2018-07-13T11:37:15.081Z,29.12
2018-07-13T11:39:41.959Z,28.57
2018-07-13T11:42:08.913Z,28.74
2018-07-13T11:44:35.852Z,29.27
2018-07-13T11:47:02.763Z,29.84
2018-07-13T11:49:29.667Z,29.99
2018-07-13T11:51:56.583Z,29.54
2018-07-13T11:54:23.556Z,29.97
2018-07-13T11:56:50.415Z,29.96
2018-07-13T11:59:17.319Z,30.41
2018-07-13T12:01:44.227Z,31.33
2018-07-13T12:04:11.182Z,31.50
2018-07-13T12:06:38.105Z,30.76
2018-07-13T12:09:05.467Z,30.76
2018-07-13T12:11:32.682Z,30.98
2018-07-13T12:13:59.564Z,30.08
2018-07-13T12:16:26.523Z,30.48
2018-07-13T12:18:53.432Z,30.77
2018-07-13T12:21:20.364Z,30.28
2018-07-13T12:23:47.272Z,30.96
2018-07-13T12:26:14.191Z,30.46
2018-07-13T12:28:41.205Z,29.97
2018-07-13T12:31:08.132Z,29.16
2018-07-13T12:33:35.046Z,29.70
2018-07-13T12:36:01.940Z,29.87
2018-07-13T12:38:28.850Z,29.31
2018-07-13T12:40:55.764Z,30.07
2018-07-13T12:43:23.652Z,29.58
2018-07-13T12:45:50.569Z,29.49
2018-07-13T12:48:17.504Z,29.67
2018-07-13T12:50:44.432Z,29.82
2018-07-13T12:53:11.367Z,30.60
2018-07-13T12:55:38.271Z,30.87
2018-07-13T12:58:05.294Z,31.49
2018-07-13T13:00:32.235Z,31.30
2018-07-13T13:02:59.177Z,31.03
2018-07-13T13:05:26.153Z,32.07
2018-07-13T13:07:53.047Z,32.42
2018-07-13T13:10:19.932Z,32.45
2018-07-13T13:12:46.819Z,32.49
2018-07-13T13:15:13.818Z,31.95
2018-07-13T13:17:40.737Z,32.02
2018-07-13T13:20:07.637Z,32.22
2018-07-13T13:22:34.592Z,32.73
2018-07-13T13:25:01.484Z,33.03
2018-07-13T13:27:28.377Z,31.97
2018-07-13T13:29:55.444Z,30.95
2018-07-13T13:32:22.365Z,31.00
2018-07-13T13:34:49.280Z,31.67
2018-07-13T13:37:16.181Z,31.85
2018-07-13T13:39:43.126Z,31.46
2018-07-13T13:42:10.144Z,31.23
2018-07-13T13:44:37.067Z,31.25
2018-07-13T13:47:05.082Z,30.97
2018-07-13T13:49:32.845Z,30.91
2018-07-13T13:51:59.791Z,31.30
2018-07-13T13:54:26.765Z,31.16
2018-07-13T13:56:53.659Z,30.97
2018-07-13T13:59:20.571Z,30.17
2018-07-13T14:01:47.456Z,30.29
2018-07-13T14:04:14.494Z,30.27
2018-07-13T14:06:41.372Z,30.37
2018-07-13T14:09:08.414Z,30.62
2018-07-13T14:11:35.326Z,30.86
2018-07-13T14:14:02.299Z,31.16
2018-07-13T14:16:29.189Z,31.40
2018-07-13T14:18:56.090Z,31.80
2018-07-13T14:21:23.074Z,32.25
2018-07-13T14:23:50.015Z,32.76
2018-07-13T14:26:16.913Z,32.18
2018-07-13T14:28:43.985Z,31.83
2018-07-13T14:31:10.914Z,31.33
2018-07-13T14:33:37.808Z,31.25
2018-07-13T14:36:04.738Z,31.07
2018-07-13T14:38:31.692Z,32.02
2018-07-13T14:40:58.624Z,32.60
2018-07-13T14:43:25.539Z,33.42
2018-07-13T14:45:52.490Z,33.29
2018-07-13T14:48:19.461Z,33.37
2018-07-13T14:50:46.391Z,34.58
2018-07-13T14:53:13.287Z,34.46
2018-07-13T14:55:40.233Z,34.39
2018-07-13T14:58:07.127Z,34.59
2018-07-13T15:00:34.046Z,33.50
2018-07-13T15:03:01.001Z,34.30
2018-07-13T15:05:27.884Z,35.38
2018-07-13T15:07:54.883Z,33.99
2018-07-13T15:10:22.021Z,34.31
2018-07-13T15:12:48.892Z,35.20
2018-07-13T15:15:15.827Z,36.43
2018-07-13T15:17:42.680Z,35.94
2018-07-13T15:20:09.602Z,36.65
2018-07-13T15:22:36.531Z,36.54
2018-07-13T15:25:03.447Z,35.45
2018-07-13T15:27:30.406Z,34.49
2018-07-13T15:29:57.307Z,35.69
2018-07-13T15:32:24.221Z,36.30
2018-07-13T15:34:51.124Z,36.14
2018-07-13T15:37:18.060Z,36.34
2018-07-13T15:39:44.920Z,35.98
2018-07-13T15:42:14.844Z,35.28
2018-07-13T15:44:43.912Z,34.84
2018-07-13T15:47:12.980Z,34.20
2018-07-13T15:49:41.794Z,34.60
2018-07-13T15:52:08.794Z,35.83
2018-07-13T15:54:36.828Z,35.02
2018-07-13T15:57:09.891Z,35.15
2018-07-13T15:59:36.865Z,34.86
2018-07-13T16:02:03.830Z,35.64
2018-07-13T16:04:30.796Z,35.95
2018-07-13T16:06:57.764Z,36.58
2018-07-13T16:09:24.709Z,36.14
2018-07-13T16:11:51.656Z,36.29
2018-07-13T16:14:18.593Z,37.03
2018-07-13T16:16:45.491Z,36.68
2018-07-13T16:19:12.472Z,36.80
2018-07-13T16:21:39.396Z,34.79
2018-07-13T16:24:06.278Z,35.76
2018-07-13T16:26:33.164Z,36.72
2018-07-13T16:29:03.079Z,36.82
2018-07-13T16:31:29.980Z,35.54
2018-07-13T16:33:56.893Z,34.72
2018-07-13T16:36:23.818Z,35.26
2018-07-13T16:38:50.709Z,35.91
2018-07-13T16:41:17.599Z,35.11
2018-07-13T16:43:44.495Z,34.90
2018-07-13T16:46:11.379Z,34.26
2018-07-13T16:48:38.282Z,35.07
2018-07-13T16:51:05.167Z,35.29
2018-07-13T16:53:32.162Z,34.69
2018-07-13T16:55:59.125Z,35.43
2018-07-13T16:58:26.058Z,34.97
2018-07-13T17:00:52.970Z,34.64
2018-07-13T17:03:20.815Z,34.59
2018-07-13T17:05:48.710Z,34.59
2018-07-13T17:08:15.606Z,34.73
2018-07-13T17:10:42.509Z,33.84
2018-07-13T17:13:09.407Z,34.58
2018-07-13T17:15:36.299Z,33.86
2018-07-13T17:18:03.273Z,34.60
2018-07-13T17:20:30.431Z,34.82
2018-07-13T17:22:57.208Z,35.08
2018-07-13T17:25:24.118Z,34.60
2018-07-13T17:27:51.227Z,34.69
2018-07-13T17:30:18.123Z,33.89
2018-07-13T17:32:45.078Z,34.59
2018-07-13T17:35:11.984Z,35.36
2018-07-13T17:37:38.873Z,34.41
2018-07-13T17:40:06.775Z,34.32
2018-07-13T17:42:33.699Z,34.63
2018-07-13T17:45:01.666Z,34.63
2018-07-13T17:47:28.576Z,34.07
2018-07-13T17:49:55.510Z,34.93
2018-07-13T17:52:22.439Z,34.75
2018-07-13T17:54:49.368Z,35.08
2018-07-13T17:57:16.330Z,34.26
2018-07-13T17:59:43.243Z,34.41
2018-07-13T18:02:10.146Z,34.12
2018-07-13T18:04:37.045Z,34.55
2018-07-13T18:07:04.026Z,34.53
2018-07-13T18:09:30.980Z,34.86
2018-07-13T18:11:57.820Z,34.91
2018-07-13T18:14:24.736Z,35.29
2018-07-13T18:16:51.632Z,35.20
2018-07-13T18:19:18.548Z,34.63
2018-07-13T18:21:45.448Z,34.08
2018-07-13T18:24:12.348Z,33.35
2018-07-13T18:26:39.285Z,33.15
2018-07-13T18:29:06.174Z,32.23
2018-07-13T18:31:33.090Z,30.93
2018-07-13T18:34:00.019Z,29.67
2018-07-13T18:36:26.902Z,28.56
2018-07-13T18:38:53.851Z,28.36
2018-07-13T18:41:20.782Z,27.77
2018-07-13T18:43:47.929Z,27.31
2018-07-13T18:46:14.815Z,26.44
2018-07-13T18:48:44.733Z,25.95
2018-07-13T18:51:11.620Z,25.51
2018-07-13T18:53:38.522Z,25.33
2018-07-13T18:56:05.574Z,25.20
2018-07-13T18:58:32.506Z,25.01
2018-07-13T19:00:59.444Z,24.72
2018-07-13T19:03:26.371Z,24.67
2018-07-13T19:05:53.285Z,24.40
2018-07-13T19:08:20.193Z,24.20
2018-07-13T19:10:47.131Z,24.25
2018-07-13T19:13:14.045Z,24.32
2018-07-13T19:15:40.947Z,24.38
2018-07-13T19:18:07.858Z,24.39
2018-07-13T19:20:34.771Z,24.32
2018-07-13T19:23:01.716Z,24.23
2018-07-13T19:25:28.613Z,24.24
2018-07-13T19:27:55.612Z,24.20
2018-07-13T19:30:23.316Z,24.13
2018-07-13T19:32:50.217Z,24.08
2018-07-13T19:35:17.097Z,24.00
2018-07-13T19:37:43.987Z,23.89
2018-07-13T19:40:10.932Z,23.75
2018-07-13T19:42:37.831Z,23.61
2018-07-13T19:45:04.845Z,23.50
2018-07-13T19:47:32.340Z,23.36
2018-07-13T19:49:58.676Z,23.13
2018-07-13T19:52:25.583Z,22.95
2018-07-13T19:54:52.477Z,22.58
2018-07-13T19:57:19.567Z,22.17
2018-07-13T19:59:46.297Z,21.91
2018-07-13T20:02:13.195Z,21.77
2018-07-13T20:04:40.099Z,21.54
2018-07-13T20:07:07.866Z,21.47
2018-07-13T20:09:34.795Z,21.37
2018-07-13T20:12:01.708Z,21.57
2018-07-13T20:14:28.638Z,21.25
2018-07-13T20:16:55.652Z,21.43
2018-07-13T20:19:22.484Z,21.59
2018-07-13T20:21:49.428Z,21.85
2018-07-13T20:24:16.471Z,21.71
2018-07-13T20:26:43.372Z,21.75
2018-07-13T20:29:10.274Z,21.71
2018-07-13T20:31:37.206Z,21.74
2018-07-13T20:34:04.477Z,21.64
2018-07-13T20:36:31.385Z,21.60
2018-07-13T20:38:58.375Z,21.49
2018-07-13T20:41:25.304Z,21.34
2018-07-13T20:43:52.229Z,21.32
2018-07-13T20:46:19.131Z,21.11
2018-07-13T20:48:46.018Z,21.10
2018-07-13T20:51:12.897Z,20.99
2018-07-13T20:53:39.840Z,20.98
2018-07-13T20:56:06.729Z,20.92
2018-07-13T20:58:33.655Z,20.87
2018-07-13T21:01:00.577Z,20.79
2018-07-13T21:03:27.502Z,20.62
2018-07-13T21:05:54.424Z,20.62
2018-07-13T21:08:21.361Z,20.52
2018-07-13T21:10:48.250Z,20.71
2018-07-13T21:13:15.136Z,20.60
2018-07-13T21:15:42.065Z,20.55
2018-07-13T21:18:08.981Z,20.55
2018-07-13T21:20:35.904Z,20.47
2018-07-13T21:23:02.801Z,20.34
2018-07-13T21:25:29.684Z,20.27
2018-07-13T21:27:56.589Z,20.14
2018-07-13T21:30:23.473Z,19.93
2018-07-13T21:32:50.406Z,19.79
2018-07-13T21:35:17.290Z,19.72
2018-07-13T21:37:44.210Z,19.72
2018-07-13T21:40:11.119Z,19.63
2018-07-13T21:42:38.023Z,19.55
2018-07-13T21:45:04.942Z,19.52
2018-07-13T21:47:31.844Z,19.43
2018-07-13T21:49:58.776Z,19.55
2018-07-13T21:52:25.674Z,19.45
2018-07-13T21:54:52.562Z,19.38
2018-07-13T21:57:19.434Z,19.35
2018-07-13T21:59:46.383Z,19.36
2018-07-13T22:02:13.324Z,19.32
2018-07-13T22:04:41.059Z,19.44
2018-07-13T22:07:07.944Z,19.50
2018-07-13T22:09:34.870Z,19.62
2018-07-13T22:12:02.486Z,19.64
2018-07-13T22:14:29.374Z,19.85
2018-07-13T22:16:56.281Z,19.59
2018-07-13T22:19:23.178Z,19.50
2018-07-13T22:21:50.062Z,19.38
2018-07-13T22:24:16.956Z,19.25
2018-07-13T22:26:43.835Z,19.25
2018-07-13T22:29:10.739Z,19.27
2018-07-13T22:31:37.623Z,19.45
2018-07-13T22:34:04.885Z,19.45
2018-07-13T22:36:31.770Z,19.43
2018-07-13T22:38:58.667Z,19.70
2018-07-13T22:41:25.556Z,19.46
2018-07-13T22:43:52.444Z,19.28
2018-07-13T22:46:19.343Z,19.20
2018-07-13T22:48:46.408Z,19.52
2018-07-13T22:51:13.402Z,19.43
2018-07-13T22:53:40.240Z,19.48
2018-07-13T22:56:08.062Z,19.43
2018-07-13T22:58:34.947Z,19.49
2018-07-13T23:01:01.866Z,19.44
2018-07-13T23:03:30.850Z,19.36
2018-07-13T23:05:58.426Z,19.27
2018-07-13T23:08:25.317Z,19.27
2018-07-13T23:10:52.196Z,19.20
2018-07-13T23:13:19.082Z,19.18
2018-07-13T23:15:45.992Z,19.52
2018-07-13T23:18:12.904Z,19.36
2018-07-13T23:20:39.817Z,19.50
2018-07-13T23:23:06.720Z,19.56
2018-07-13T23:25:33.602Z,19.54
2018-07-13T23:28:00.632Z,19.52
2018-07-13T23:30:27.550Z,19.42
2018-07-13T23:32:54.435Z,19.30
2018-07-13T23:35:21.311Z,19.37
2018-07-13T23:37:48.225Z,19.61
2018-07-13T23:40:15.125Z,19.30
2018-07-13T23:42:42.004Z,19.19
2018-07-13T23:45:08.958Z,19.14
2018-07-13T23:47:35.945Z,18.99
2018-07-13T23:50:02.896Z,18.96
2018-07-13T23:52:29.746Z,18.97
2018-07-13T23:54:56.689Z,19.01
2018-07-13T23:57:25.558Z,19.07
2018-07-13T23:59:52.511Z,18.99
